sensor_id;sensor_type;location;lat;lon;timestamp;temperature;humidity
14850;DHT22;7517;48.400;11.770;2023-09-19T00:00:46;21.30;75.40
14850;DHT22;7517;48.400;11.770;2023-09-19T00:03:15;21.30;76.10
14850;DHT22;7517;48.400;11.770;2023-09-19T00:05:44;21.30;75.40
14850;DHT22;7517;48.400;11.770;2023-09-19T00:08:11;21.30;75.60
14850;DHT22;7517;48.400;11.770;2023-09-19T00:10:40;21.30;75.60
14850;DHT22;7517;48.400;11.770;2023-09-19T00:13:09;21.30;75.80
14850;DHT22;7517;48.400;11.770;2023-09-19T00:15:39;21.30;75.80
14850;DHT22;7517;48.400;11.770;2023-09-19T00:18:08;21.30;75.90
14850;DHT22;7517;48.400;11.770;2023-09-19T00:20:36;21.30;75.90
14850;DHT22;7517;48.400;11.770;2023-09-19T00:23:05;21.30;75.90
14850;DHT22;7517;48.400;11.770;2023-09-19T00:25:33;21.30;75.90
14850;DHT22;7517;48.400;11.770;2023-09-19T00:28:03;21.30;76.00
14850;DHT22;7517;48.400;11.770;2023-09-19T00:30:31;21.30;75.90
14850;DHT22;7517;48.400;11.770;2023-09-19T00:32:59;21.30;75.70
14850;DHT22;7517;48.400;11.770;2023-09-19T00:35:31;21.30;75.70
14850;DHT22;7517;48.400;11.770;2023-09-19T00:37:59;21.30;75.70
14850;DHT22;7517;48.400;11.770;2023-09-19T00:40:27;21.20;75.60
14850;DHT22;7517;48.400;11.770;2023-09-19T00:42:58;21.20;75.50
14850;DHT22;7517;48.400;11.770;2023-09-19T00:45:26;21.20;75.50
14850;DHT22;7517;48.400;11.770;2023-09-19T00:47:54;21.20;75.40
14850;DHT22;7517;48.400;11.770;2023-09-19T00:50:25;21.20;75.40
14850;DHT22;7517;48.400;11.770;2023-09-19T00:52:55;21.20;75.30
14850;DHT22;7517;48.400;11.770;2023-09-19T00:55:24;21.20;75.30
14850;DHT22;7517;48.400;11.770;2023-09-19T00:57:56;21.20;75.40
14850;DHT22;7517;48.400;11.770;2023-09-19T01:00:24;21.20;75.50
14850;DHT22;7517;48.400;11.770;2023-09-19T01:02:52;21.10;75.50
14850;DHT22;7517;48.400;11.770;2023-09-19T01:05:21;21.10;75.50
14850;DHT22;7517;48.400;11.770;2023-09-19T01:07:49;21.10;75.70
14850;DHT22;7517;48.400;11.770;2023-09-19T01:10:19;21.10;75.80
14850;DHT22;7517;48.400;11.770;2023-09-19T01:12:53;21.10;76.00
14850;DHT22;7517;48.400;11.770;2023-09-19T01:15:32;21.10;76.90
14850;DHT22;7517;48.400;11.770;2023-09-19T01:18:16;21.10;76.20
14850;DHT22;7517;48.400;11.770;2023-09-19T01:21:00;21.10;77.00
14850;DHT22;7517;48.400;11.770;2023-09-19T01:23:46;21.10;76.30
14850;DHT22;7517;48.400;11.770;2023-09-19T01:26:56;21.10;76.40
14850;DHT22;7517;48.400;11.770;2023-09-19T01:29:46;21.10;76.30
14850;DHT22;7517;48.400;11.770;2023-09-19T01:32:19;21.10;76.30
14850;DHT22;7517;48.400;11.770;2023-09-19T01:34:48;21.10;76.20
14850;DHT22;7517;48.400;11.770;2023-09-19T01:37:18;21.10;76.20
14850;DHT22;7517;48.400;11.770;2023-09-19T01:39:53;21.10;75.90
14850;DHT22;7517;48.400;11.770;2023-09-19T01:42:37;21.10;75.90
14850;DHT22;7517;48.400;11.770;2023-09-19T01:45:12;21.10;76.00
14850;DHT22;7517;48.400;11.770;2023-09-19T01:47:51;21.20;76.00
14850;DHT22;7517;48.400;11.770;2023-09-19T01:50:29;21.10;75.70
14850;DHT22;7517;48.400;11.770;2023-09-19T01:53:05;21.10;75.60
14850;DHT22;7517;48.400;11.770;2023-09-19T01:55:41;21.10;75.60
14850;DHT22;7517;48.400;11.770;2023-09-19T01:58:17;21.20;75.80
14850;DHT22;7517;48.400;11.770;2023-09-19T02:00:51;21.10;75.40
14850;DHT22;7517;48.400;11.770;2023-09-19T02:03:21;21.20;75.60
14850;DHT22;7517;48.400;11.770;2023-09-19T02:05:50;21.20;75.40
14850;DHT22;7517;48.400;11.770;2023-09-19T02:08:20;21.20;75.40
14850;DHT22;7517;48.400;11.770;2023-09-19T02:10:49;21.20;75.40
14850;DHT22;7517;48.400;11.770;2023-09-19T02:13:19;21.20;75.30
14850;DHT22;7517;48.400;11.770;2023-09-19T02:15:47;21.20;75.30
14850;DHT22;7517;48.400;11.770;2023-09-19T02:18:15;21.20;75.30
14850;DHT22;7517;48.400;11.770;2023-09-19T02:20:44;21.20;75.30
14850;DHT22;7517;48.400;11.770;2023-09-19T02:23:12;21.20;75.30
14850;DHT22;7517;48.400;11.770;2023-09-19T02:25:39;21.20;75.30
14850;DHT22;7517;48.400;11.770;2023-09-19T02:28:07;21.20;75.30
14850;DHT22;7517;48.400;11.770;2023-09-19T02:30:35;21.30;75.40
14850;DHT22;7517;48.400;11.770;2023-09-19T02:33:03;21.30;75.30
14850;DHT22;7517;48.400;11.770;2023-09-19T02:35:31;21.30;75.20
14850;DHT22;7517;48.400;11.770;2023-09-19T02:38:03;21.30;75.20
14850;DHT22;7517;48.400;11.770;2023-09-19T02:40:32;21.30;75.20
14850;DHT22;7517;48.400;11.770;2023-09-19T02:43:01;21.40;75.20
14850;DHT22;7517;48.400;11.770;2023-09-19T02:45:29;21.40;75.20
14850;DHT22;7517;48.400;11.770;2023-09-19T02:47:57;21.40;75.40
14850;DHT22;7517;48.400;11.770;2023-09-19T02:50:25;21.40;75.20
14850;DHT22;7517;48.400;11.770;2023-09-19T02:52:52;21.50;75.20
14850;DHT22;7517;48.400;11.770;2023-09-19T02:55:21;21.50;75.00
14850;DHT22;7517;48.400;11.770;2023-09-19T02:57:50;21.50;75.00
14850;DHT22;7517;48.400;11.770;2023-09-19T03:00:21;21.50;74.90
14850;DHT22;7517;48.400;11.770;2023-09-19T03:02:48;21.50;74.80
14850;DHT22;7517;48.400;11.770;2023-09-19T03:05:17;21.50;74.80
14850;DHT22;7517;48.400;11.770;2023-09-19T03:07:45;21.60;74.90
14850;DHT22;7517;48.400;11.770;2023-09-19T03:10:16;21.60;74.70
14850;DHT22;7517;48.400;11.770;2023-09-19T03:12:46;21.60;74.70
14850;DHT22;7517;48.400;11.770;2023-09-19T03:15:14;21.60;74.60
14850;DHT22;7517;48.400;11.770;2023-09-19T03:17:43;21.60;74.60
14850;DHT22;7517;48.400;11.770;2023-09-19T03:20:11;21.60;74.60
14850;DHT22;7517;48.400;11.770;2023-09-19T03:22:42;21.60;74.50
14850;DHT22;7517;48.400;11.770;2023-09-19T03:25:10;21.60;74.40
14850;DHT22;7517;48.400;11.770;2023-09-19T03:27:38;21.60;74.40
14850;DHT22;7517;48.400;11.770;2023-09-19T03:30:08;21.60;74.30
14850;DHT22;7517;48.400;11.770;2023-09-19T03:32:44;21.70;74.20
14850;DHT22;7517;48.400;11.770;2023-09-19T03:35:14;21.70;74.10
14850;DHT22;7517;48.400;11.770;2023-09-19T03:37:42;21.70;74.50
14850;DHT22;7517;48.400;11.770;2023-09-19T03:40:11;21.60;74.00
14850;DHT22;7517;48.400;11.770;2023-09-19T03:42:40;21.60;74.10
14850;DHT22;7517;48.400;11.770;2023-09-19T03:45:09;21.70;74.30
14850;DHT22;7517;48.400;11.770;2023-09-19T03:47:39;21.70;74.10
14850;DHT22;7517;48.400;11.770;2023-09-19T03:50:06;21.70;74.90
14850;DHT22;7517;48.400;11.770;2023-09-19T03:52:36;21.70;74.00
14850;DHT22;7517;48.400;11.770;2023-09-19T03:55:04;21.70;74.20
14850;DHT22;7517;48.400;11.770;2023-09-19T03:57:35;21.70;74.00
14850;DHT22;7517;48.400;11.770;2023-09-19T04:00:05;21.70;73.90
14850;DHT22;7517;48.400;11.770;2023-09-19T04:02:38;21.70;73.80
14850;DHT22;7517;48.400;11.770;2023-09-19T04:05:07;21.70;73.80
14850;DHT22;7517;48.400;11.770;2023-09-19T04:07:33;21.60;73.70
14850;DHT22;7517;48.400;11.770;2023-09-19T04:10:00;21.70;73.80
14850;DHT22;7517;48.400;11.770;2023-09-19T04:12:28;21.70;73.80
14850;DHT22;7517;48.400;11.770;2023-09-19T04:14:55;21.70;73.80
14850;DHT22;7517;48.400;11.770;2023-09-19T04:17:23;21.70;73.80
14850;DHT22;7517;48.400;11.770;2023-09-19T04:19:51;21.60;73.60
14850;DHT22;7517;48.400;11.770;2023-09-19T04:22:19;21.70;73.70
14850;DHT22;7517;48.400;11.770;2023-09-19T04:24:46;21.70;73.80
14850;DHT22;7517;48.400;11.770;2023-09-19T04:27:13;21.70;73.80
14850;DHT22;7517;48.400;11.770;2023-09-19T04:29:41;21.70;73.80
14850;DHT22;7517;48.400;11.770;2023-09-19T04:32:08;21.70;73.80
14850;DHT22;7517;48.400;11.770;2023-09-19T04:34:35;21.70;73.80
14850;DHT22;7517;48.400;11.770;2023-09-19T04:37:05;21.70;73.60
14850;DHT22;7517;48.400;11.770;2023-09-19T04:39:32;21.70;73.60
14850;DHT22;7517;48.400;11.770;2023-09-19T04:42:00;21.70;73.60
14850;DHT22;7517;48.400;11.770;2023-09-19T04:44:27;21.70;73.40
14850;DHT22;7517;48.400;11.770;2023-09-19T04:46:54;21.70;73.50
14850;DHT22;7517;48.400;11.770;2023-09-19T04:49:21;21.80;73.40
14850;DHT22;7517;48.400;11.770;2023-09-19T04:51:48;21.70;73.00
14850;DHT22;7517;48.400;11.770;2023-09-19T04:54:17;21.80;73.00
14850;DHT22;7517;48.400;11.770;2023-09-19T04:56:44;21.80;72.90
14850;DHT22;7517;48.400;11.770;2023-09-19T04:59:12;21.80;72.90
14850;DHT22;7517;48.400;11.770;2023-09-19T05:01:40;21.80;72.90
14850;DHT22;7517;48.400;11.770;2023-09-19T05:04:07;21.80;72.90
14850;DHT22;7517;48.400;11.770;2023-09-19T05:06:34;21.80;72.90
14850;DHT22;7517;48.400;11.770;2023-09-19T05:09:01;21.80;73.50
14850;DHT22;7517;48.400;11.770;2023-09-19T05:11:32;21.80;72.70
14850;DHT22;7517;48.400;11.770;2023-09-19T05:13:59;21.80;72.60
14850;DHT22;7517;48.400;11.770;2023-09-19T05:16:29;21.90;72.90
14850;DHT22;7517;48.400;11.770;2023-09-19T05:18:58;21.80;72.60
14850;DHT22;7517;48.400;11.770;2023-09-19T05:21:25;21.90;72.60
14850;DHT22;7517;48.400;11.770;2023-09-19T05:23:54;21.90;72.60
14850;DHT22;7517;48.400;11.770;2023-09-19T05:26:22;21.90;72.70
14850;DHT22;7517;48.400;11.770;2023-09-19T05:28:51;21.90;72.80
14850;DHT22;7517;48.400;11.770;2023-09-19T05:31:18;21.90;72.90
14850;DHT22;7517;48.400;11.770;2023-09-19T05:33:46;21.90;72.80
14850;DHT22;7517;48.400;11.770;2023-09-19T05:36:15;21.90;72.90
14850;DHT22;7517;48.400;11.770;2023-09-19T05:38:44;21.90;72.80
14850;DHT22;7517;48.400;11.770;2023-09-19T05:41:14;21.90;73.50
14850;DHT22;7517;48.400;11.770;2023-09-19T05:43:41;21.90;72.90
14850;DHT22;7517;48.400;11.770;2023-09-19T05:46:10;22.00;72.80
14850;DHT22;7517;48.400;11.770;2023-09-19T05:48:38;22.00;72.90
14850;DHT22;7517;48.400;11.770;2023-09-19T05:51:07;22.00;72.80
14850;DHT22;7517;48.400;11.770;2023-09-19T05:53:35;22.00;72.90
14850;DHT22;7517;48.400;11.770;2023-09-19T05:56:03;22.00;73.70
14850;DHT22;7517;48.400;11.770;2023-09-19T05:58:30;22.00;72.90
14850;DHT22;7517;48.400;11.770;2023-09-19T06:00:57;22.00;72.60
14850;DHT22;7517;48.400;11.770;2023-09-19T06:03:26;22.00;73.30
14850;DHT22;7517;48.400;11.770;2023-09-19T06:05:54;22.00;72.70
14850;DHT22;7517;48.400;11.770;2023-09-19T06:08:23;22.00;72.60
14850;DHT22;7517;48.400;11.770;2023-09-19T06:10:51;22.00;72.50
14850;DHT22;7517;48.400;11.770;2023-09-19T06:13:18;21.90;72.40
14850;DHT22;7517;48.400;11.770;2023-09-19T06:15:46;21.90;72.50
14850;DHT22;7517;48.400;11.770;2023-09-19T06:18:13;22.00;72.60
14850;DHT22;7517;48.400;11.770;2023-09-19T06:20:46;21.90;72.40
14850;DHT22;7517;48.400;11.770;2023-09-19T06:23:16;21.90;72.60
14850;DHT22;7517;48.400;11.770;2023-09-19T06:25:45;21.90;72.80
14850;DHT22;7517;48.400;11.770;2023-09-19T06:28:14;21.90;72.70
14850;DHT22;7517;48.400;11.770;2023-09-19T06:30:43;21.90;72.80
14850;DHT22;7517;48.400;11.770;2023-09-19T06:33:11;21.90;72.70
14850;DHT22;7517;48.400;11.770;2023-09-19T06:35:39;21.90;72.90
14850;DHT22;7517;48.400;11.770;2023-09-19T06:38:08;21.90;72.80
14850;DHT22;7517;48.400;11.770;2023-09-19T06:40:38;21.90;72.70
14850;DHT22;7517;48.400;11.770;2023-09-19T06:43:10;21.90;72.80
14850;DHT22;7517;48.400;11.770;2023-09-19T06:45:37;21.90;72.90
14850;DHT22;7517;48.400;11.770;2023-09-19T06:48:05;21.90;72.90
14850;DHT22;7517;48.400;11.770;2023-09-19T06:50:35;21.90;73.00
14850;DHT22;7517;48.400;11.770;2023-09-19T06:53:04;21.90;73.10
14850;DHT22;7517;48.400;11.770;2023-09-19T06:55:33;21.90;73.10
14850;DHT22;7517;48.400;11.770;2023-09-19T06:58:00;21.90;73.30
14850;DHT22;7517;48.400;11.770;2023-09-19T07:00:27;21.90;73.20
14850;DHT22;7517;48.400;11.770;2023-09-19T07:02:57;21.90;73.20
14850;DHT22;7517;48.400;11.770;2023-09-19T07:05:27;21.90;73.10
14850;DHT22;7517;48.400;11.770;2023-09-19T07:07:54;21.90;73.30
14850;DHT22;7517;48.400;11.770;2023-09-19T07:10:22;21.90;73.40
14850;DHT22;7517;48.400;11.770;2023-09-19T07:12:56;22.00;73.10
14850;DHT22;7517;48.400;11.770;2023-09-19T07:15:24;21.90;72.30
14850;DHT22;7517;48.400;11.770;2023-09-19T07:17:51;21.90;72.70
14850;DHT22;7517;48.400;11.770;2023-09-19T07:20:22;22.00;72.70
14850;DHT22;7517;48.400;11.770;2023-09-19T07:22:51;22.00;73.00
14850;DHT22;7517;48.400;11.770;2023-09-19T07:25:20;22.00;73.20
14850;DHT22;7517;48.400;11.770;2023-09-19T07:27:48;22.10;73.50
14850;DHT22;7517;48.400;11.770;2023-09-19T07:30:18;22.20;73.40
14850;DHT22;7517;48.400;11.770;2023-09-19T07:32:45;22.30;73.20
14850;DHT22;7517;48.400;11.770;2023-09-19T07:35:12;22.30;73.10
14850;DHT22;7517;48.400;11.770;2023-09-19T07:37:40;22.40;72.50
14850;DHT22;7517;48.400;11.770;2023-09-19T07:40:08;22.50;72.10
14850;DHT22;7517;48.400;11.770;2023-09-19T07:42:37;22.50;72.20
14850;DHT22;7517;48.400;11.770;2023-09-19T07:45:07;22.60;73.10
14850;DHT22;7517;48.400;11.770;2023-09-19T07:47:36;22.60;71.90
14850;DHT22;7517;48.400;11.770;2023-09-19T07:50:03;22.70;71.60
14850;DHT22;7517;48.400;11.770;2023-09-19T07:52:33;22.70;71.70
14850;DHT22;7517;48.400;11.770;2023-09-19T07:55:00;22.80;72.40
14850;DHT22;7517;48.400;11.770;2023-09-19T07:57:34;22.90;71.50
14850;DHT22;7517;48.400;11.770;2023-09-19T08:00:03;22.90;71.30
14850;DHT22;7517;48.400;11.770;2023-09-19T08:02:36;23.00;71.40
14850;DHT22;7517;48.400;11.770;2023-09-19T08:05:04;23.10;70.60
14850;DHT22;7517;48.400;11.770;2023-09-19T08:07:35;23.10;70.50
14850;DHT22;7517;48.400;11.770;2023-09-19T08:10:03;23.20;70.30
14850;DHT22;7517;48.400;11.770;2023-09-19T08:12:33;23.30;70.10
14850;DHT22;7517;48.400;11.770;2023-09-19T08:15:01;23.30;70.00
14850;DHT22;7517;48.400;11.770;2023-09-19T08:17:33;23.40;70.30
14850;DHT22;7517;48.400;11.770;2023-09-19T08:20:02;23.50;70.00
14850;DHT22;7517;48.400;11.770;2023-09-19T08:22:31;23.50;70.20
14850;DHT22;7517;48.400;11.770;2023-09-19T08:24:58;23.60;70.10
14850;DHT22;7517;48.400;11.770;2023-09-19T08:27:30;23.60;69.80
14850;DHT22;7517;48.400;11.770;2023-09-19T08:29:57;23.70;70.00
14850;DHT22;7517;48.400;11.770;2023-09-19T08:32:24;23.80;69.80
14850;DHT22;7517;48.400;11.770;2023-09-19T08:34:54;23.90;69.50
14850;DHT22;7517;48.400;11.770;2023-09-19T08:37:21;24.00;70.40
14850;DHT22;7517;48.400;11.770;2023-09-19T08:39:48;24.00;69.00
14850;DHT22;7517;48.400;11.770;2023-09-19T08:42:16;24.10;69.00
14850;DHT22;7517;48.400;11.770;2023-09-19T08:44:45;24.30;69.20
14850;DHT22;7517;48.400;11.770;2023-09-19T08:47:15;24.30;69.30
14850;DHT22;7517;48.400;11.770;2023-09-19T08:49:50;24.40;68.80
14850;DHT22;7517;48.400;11.770;2023-09-19T08:52:31;24.50;67.90
14850;DHT22;7517;48.400;11.770;2023-09-19T08:55:05;24.60;68.60
14850;DHT22;7517;48.400;11.770;2023-09-19T08:57:36;24.70;68.60
14850;DHT22;7517;48.400;11.770;2023-09-19T09:00:08;24.80;68.60
14850;DHT22;7517;48.400;11.770;2023-09-19T09:02:38;24.90;68.40
14850;DHT22;7517;48.400;11.770;2023-09-19T09:05:09;25.00;68.20
14850;DHT22;7517;48.400;11.770;2023-09-19T09:07:37;25.10;67.70
14850;DHT22;7517;48.400;11.770;2023-09-19T09:10:06;25.20;68.10
14850;DHT22;7517;48.400;11.770;2023-09-19T09:12:35;25.40;67.80
14850;DHT22;7517;48.400;11.770;2023-09-19T09:15:05;25.50;66.80
14850;DHT22;7517;48.400;11.770;2023-09-19T09:17:34;25.60;66.60
14850;DHT22;7517;48.400;11.770;2023-09-19T09:20:01;25.70;67.30
14850;DHT22;7517;48.400;11.770;2023-09-19T09:22:32;25.80;66.00
14850;DHT22;7517;48.400;11.770;2023-09-19T09:24:59;25.90;65.80
14850;DHT22;7517;48.400;11.770;2023-09-19T09:27:29;26.00;65.40
14850;DHT22;7517;48.400;11.770;2023-09-19T09:29:57;26.00;65.00
14850;DHT22;7517;48.400;11.770;2023-09-19T09:32:25;26.10;64.80
14850;DHT22;7517;48.400;11.770;2023-09-19T09:34:55;26.20;64.40
14850;DHT22;7517;48.400;11.770;2023-09-19T09:37:25;26.20;63.80
14850;DHT22;7517;48.400;11.770;2023-09-19T09:39:57;26.20;63.70
14850;DHT22;7517;48.400;11.770;2023-09-19T09:42:45;26.20;63.20
14850;DHT22;7517;48.400;11.770;2023-09-19T09:45:16;26.20;62.60
14850;DHT22;7517;48.400;11.770;2023-09-19T09:47:54;26.20;62.50
14850;DHT22;7517;48.400;11.770;2023-09-19T09:50:25;26.10;62.00
14850;DHT22;7517;48.400;11.770;2023-09-19T09:53:20;26.10;62.30
14850;DHT22;7517;48.400;11.770;2023-09-19T09:55:59;26.00;61.10
14850;DHT22;7517;48.400;11.770;2023-09-19T09:58:28;26.00;61.90
14850;DHT22;7517;48.400;11.770;2023-09-19T10:00:57;25.90;61.90
14850;DHT22;7517;48.400;11.770;2023-09-19T10:03:33;25.80;62.10
14850;DHT22;7517;48.400;11.770;2023-09-19T10:06:06;25.80;62.50
14850;DHT22;7517;48.400;11.770;2023-09-19T10:09:03;25.80;62.30
14850;DHT22;7517;48.400;11.770;2023-09-19T10:11:43;25.80;62.20
14850;DHT22;7517;48.400;11.770;2023-09-19T10:14:12;25.80;62.10
14850;DHT22;7517;48.400;11.770;2023-09-19T10:16:45;25.70;62.30
14850;DHT22;7517;48.400;11.770;2023-09-19T10:19:16;25.70;61.60
14850;DHT22;7517;48.400;11.770;2023-09-19T10:21:50;25.70;62.20
14850;DHT22;7517;48.400;11.770;2023-09-19T10:24:22;25.70;63.10
14850;DHT22;7517;48.400;11.770;2023-09-19T10:26:52;25.70;63.30
14850;DHT22;7517;48.400;11.770;2023-09-19T10:29:21;25.70;62.60
14850;DHT22;7517;48.400;11.770;2023-09-19T10:31:49;25.70;62.30
14850;DHT22;7517;48.400;11.770;2023-09-19T10:34:20;25.70;62.00
14850;DHT22;7517;48.400;11.770;2023-09-19T10:36:51;25.60;61.20
14850;DHT22;7517;48.400;11.770;2023-09-19T10:39:19;25.60;60.80
14850;DHT22;7517;48.400;11.770;2023-09-19T10:41:51;25.60;60.70
14850;DHT22;7517;48.400;11.770;2023-09-19T10:44:25;25.50;60.70
14850;DHT22;7517;48.400;11.770;2023-09-19T10:46:54;25.50;61.40
14850;DHT22;7517;48.400;11.770;2023-09-19T10:49:22;25.40;61.50
14850;DHT22;7517;48.400;11.770;2023-09-19T10:51:55;25.30;61.30
14850;DHT22;7517;48.400;11.770;2023-09-19T10:54:30;25.20;61.40
14850;DHT22;7517;48.400;11.770;2023-09-19T10:57:04;25.10;61.70
14850;DHT22;7517;48.400;11.770;2023-09-19T10:59:34;25.00;61.90
14850;DHT22;7517;48.400;11.770;2023-09-19T11:02:16;24.90;62.40
14850;DHT22;7517;48.400;11.770;2023-09-19T11:04:45;24.70;62.30
14850;DHT22;7517;48.400;11.770;2023-09-19T11:07:15;24.60;62.90
14850;DHT22;7517;48.400;11.770;2023-09-19T11:09:43;24.60;63.40
14850;DHT22;7517;48.400;11.770;2023-09-19T11:12:50;24.40;63.30
14850;DHT22;7517;48.400;11.770;2023-09-19T11:18:55;24.30;64.20
14850;DHT22;7517;48.400;11.770;2023-09-19T11:21:52;24.20;64.20
14850;DHT22;7517;48.400;11.770;2023-09-19T11:24:31;24.10;65.10
14850;DHT22;7517;48.400;11.770;2023-09-19T11:27:15;24.00;64.90
14850;DHT22;7517;48.400;11.770;2023-09-19T11:29:45;24.00;65.90
14850;DHT22;7517;48.400;11.770;2023-09-19T11:32:14;24.00;65.80
14850;DHT22;7517;48.400;11.770;2023-09-19T11:34:43;24.00;65.90
14850;DHT22;7517;48.400;11.770;2023-09-19T11:40:45;23.90;65.60
14850;DHT22;7517;48.400;11.770;2023-09-19T11:43:33;24.00;65.90
14850;DHT22;7517;48.400;11.770;2023-09-19T11:46:10;24.00;66.20
14850;DHT22;7517;48.400;11.770;2023-09-19T11:48:41;24.00;66.30
14850;DHT22;7517;48.400;11.770;2023-09-19T11:51:11;24.00;66.40
14850;DHT22;7517;48.400;11.770;2023-09-19T11:53:48;24.00;66.70
14850;DHT22;7517;48.400;11.770;2023-09-19T11:56:17;24.00;66.30
14850;DHT22;7517;48.400;11.770;2023-09-19T11:58:46;24.00;66.60
14850;DHT22;7517;48.400;11.770;2023-09-19T12:01:22;24.00;66.70
14850;DHT22;7517;48.400;11.770;2023-09-19T12:03:54;24.10;66.70
14850;DHT22;7517;48.400;11.770;2023-09-19T12:06:24;24.10;67.20
14850;DHT22;7517;48.400;11.770;2023-09-19T12:08:52;24.20;67.10
14850;DHT22;7517;48.400;11.770;2023-09-19T12:11:22;24.20;66.80
14850;DHT22;7517;48.400;11.770;2023-09-19T12:13:50;24.30;66.50
14850;DHT22;7517;48.400;11.770;2023-09-19T12:16:21;24.30;66.30
14850;DHT22;7517;48.400;11.770;2023-09-19T12:18:49;24.30;66.10
14850;DHT22;7517;48.400;11.770;2023-09-19T12:21:28;24.40;65.80
14850;DHT22;7517;48.400;11.770;2023-09-19T12:24:07;24.40;65.30
14850;DHT22;7517;48.400;11.770;2023-09-19T12:26:42;24.40;64.80
14850;DHT22;7517;48.400;11.770;2023-09-19T12:29:15;24.50;65.30
14850;DHT22;7517;48.400;11.770;2023-09-19T12:31:55;24.50;65.10
14850;DHT22;7517;48.400;11.770;2023-09-19T12:34:24;24.60;65.30
14850;DHT22;7517;48.400;11.770;2023-09-19T12:37:07;24.50;65.80
14850;DHT22;7517;48.400;11.770;2023-09-19T12:39:39;24.60;66.50
14850;DHT22;7517;48.400;11.770;2023-09-19T12:42:15;24.60;65.50
14850;DHT22;7517;48.400;11.770;2023-09-19T12:44:45;24.60;65.30
14850;DHT22;7517;48.400;11.770;2023-09-19T12:47:17;24.70;65.00
14850;DHT22;7517;48.400;11.770;2023-09-19T12:50:11;24.70;65.70
14850;DHT22;7517;48.400;11.770;2023-09-19T12:52:45;24.70;64.70
14850;DHT22;7517;48.400;11.770;2023-09-19T12:55:21;24.70;65.70
14850;DHT22;7517;48.400;11.770;2023-09-19T12:58:03;24.80;65.00
14850;DHT22;7517;48.400;11.770;2023-09-19T13:00:38;24.80;64.20
14850;DHT22;7517;48.400;11.770;2023-09-19T13:03:13;24.90;64.80
14850;DHT22;7517;48.400;11.770;2023-09-19T13:05:48;24.90;64.00
14850;DHT22;7517;48.400;11.770;2023-09-19T13:08:18;24.90;64.00
14850;DHT22;7517;48.400;11.770;2023-09-19T13:11:10;24.90;63.90
14850;DHT22;7517;48.400;11.770;2023-09-19T13:13:42;24.90;63.50
14850;DHT22;7517;48.400;11.770;2023-09-19T13:16:11;24.90;64.20
14850;DHT22;7517;48.400;11.770;2023-09-19T13:18:48;24.80;64.50
14850;DHT22;7517;48.400;11.770;2023-09-19T13:21:28;24.80;64.10
14850;DHT22;7517;48.400;11.770;2023-09-19T13:24:18;24.80;63.20
14850;DHT22;7517;48.400;11.770;2023-09-19T13:26:47;24.80;62.50
14850;DHT22;7517;48.400;11.770;2023-09-19T13:29:14;24.80;63.10
14850;DHT22;7517;48.400;11.770;2023-09-19T13:31:46;24.80;62.70
14850;DHT22;7517;48.400;11.770;2023-09-19T13:34:15;24.80;62.60
14850;DHT22;7517;48.400;11.770;2023-09-19T13:36:43;24.80;63.30
14850;DHT22;7517;48.400;11.770;2023-09-19T13:39:10;24.80;63.20
14850;DHT22;7517;48.400;11.770;2023-09-19T13:41:38;24.80;63.50
14850;DHT22;7517;48.400;11.770;2023-09-19T13:44:06;24.80;62.40
14850;DHT22;7517;48.400;11.770;2023-09-19T13:46:36;24.80;62.00
14850;DHT22;7517;48.400;11.770;2023-09-19T13:49:03;24.80;62.00
14850;DHT22;7517;48.400;11.770;2023-09-19T13:51:32;24.90;62.30
14850;DHT22;7517;48.400;11.770;2023-09-19T13:53:59;24.80;61.80
14850;DHT22;7517;48.400;11.770;2023-09-19T13:56:27;24.90;61.70
14850;DHT22;7517;48.400;11.770;2023-09-19T13:58:56;24.90;61.10
14850;DHT22;7517;48.400;11.770;2023-09-19T14:01:24;24.90;60.90
14850;DHT22;7517;48.400;11.770;2023-09-19T14:03:52;24.90;60.50
14850;DHT22;7517;48.400;11.770;2023-09-19T14:06:22;24.90;61.10
14850;DHT22;7517;48.400;11.770;2023-09-19T14:08:51;25.00;60.40
14850;DHT22;7517;48.400;11.770;2023-09-19T14:11:18;25.00;59.90
14850;DHT22;7517;48.400;11.770;2023-09-19T14:13:45;25.00;60.50
14850;DHT22;7517;48.400;11.770;2023-09-19T14:16:15;25.00;59.90
14850;DHT22;7517;48.400;11.770;2023-09-19T14:18:44;25.10;59.80
14850;DHT22;7517;48.400;11.770;2023-09-19T14:21:13;25.10;59.20
14850;DHT22;7517;48.400;11.770;2023-09-19T14:23:41;25.10;59.50
14850;DHT22;7517;48.400;11.770;2023-09-19T14:26:11;25.10;59.40
14850;DHT22;7517;48.400;11.770;2023-09-19T14:28:38;25.20;59.50
14850;DHT22;7517;48.400;11.770;2023-09-19T14:31:06;25.20;59.70
14850;DHT22;7517;48.400;11.770;2023-09-19T14:33:33;25.20;59.50
14850;DHT22;7517;48.400;11.770;2023-09-19T14:36:05;25.30;59.70
14850;DHT22;7517;48.400;11.770;2023-09-19T14:38:36;25.30;59.60
14850;DHT22;7517;48.400;11.770;2023-09-19T14:41:05;25.30;59.20
14850;DHT22;7517;48.400;11.770;2023-09-19T14:43:34;25.40;59.50
14850;DHT22;7517;48.400;11.770;2023-09-19T14:46:03;25.40;59.30
14850;DHT22;7517;48.400;11.770;2023-09-19T14:48:31;25.40;59.00
14850;DHT22;7517;48.400;11.770;2023-09-19T14:51:02;25.40;59.50
14850;DHT22;7517;48.400;11.770;2023-09-19T14:53:29;25.40;59.50
14850;DHT22;7517;48.400;11.770;2023-09-19T14:55:57;25.50;59.90
14850;DHT22;7517;48.400;11.770;2023-09-19T14:58:27;25.50;59.70
14850;DHT22;7517;48.400;11.770;2023-09-19T15:01:03;25.50;59.40
14850;DHT22;7517;48.400;11.770;2023-09-19T15:03:32;25.60;58.60
14850;DHT22;7517;48.400;11.770;2023-09-19T15:06:02;25.60;59.00
14850;DHT22;7517;48.400;11.770;2023-09-19T15:08:31;25.60;59.10
14850;DHT22;7517;48.400;11.770;2023-09-19T15:11:00;25.60;58.80
14850;DHT22;7517;48.400;11.770;2023-09-19T15:13:31;25.60;59.10
14850;DHT22;7517;48.400;11.770;2023-09-19T15:15:59;25.70;59.50
14850;DHT22;7517;48.400;11.770;2023-09-19T15:18:29;25.70;59.10
14850;DHT22;7517;48.400;11.770;2023-09-19T15:21:00;25.70;59.10
14850;DHT22;7517;48.400;11.770;2023-09-19T15:23:29;25.70;59.00
14850;DHT22;7517;48.400;11.770;2023-09-19T15:25:56;25.70;59.00
14850;DHT22;7517;48.400;11.770;2023-09-19T15:28:23;25.70;59.00
14850;DHT22;7517;48.400;11.770;2023-09-19T15:30:56;25.70;59.00
14850;DHT22;7517;48.400;11.770;2023-09-19T15:33:26;25.70;58.80
14850;DHT22;7517;48.400;11.770;2023-09-19T15:36:00;25.70;58.80
14850;DHT22;7517;48.400;11.770;2023-09-19T15:38:29;25.70;58.30
14850;DHT22;7517;48.400;11.770;2023-09-19T15:40:57;25.70;58.80
14850;DHT22;7517;48.400;11.770;2023-09-19T15:43:24;25.70;58.80
14850;DHT22;7517;48.400;11.770;2023-09-19T15:45:51;25.70;58.90
14850;DHT22;7517;48.400;11.770;2023-09-19T15:48:19;25.70;58.80
14850;DHT22;7517;48.400;11.770;2023-09-19T15:50:48;25.70;58.60
14850;DHT22;7517;48.400;11.770;2023-09-19T15:53:15;25.70;59.00
14850;DHT22;7517;48.400;11.770;2023-09-19T15:55:43;25.70;58.50
14850;DHT22;7517;48.400;11.770;2023-09-19T15:58:10;25.70;58.40